Time;durP1;ratioP1;P1;durP2;ratioP2;P2;SDS_P1;SDS_P2;PMS_P1;PMS_P2;Temp;Humidity;BMP_temperature;BMP_pressure;BME280_temperature;BME280_humidity;BME280_pressure;Samples;Min_cycle;Max_cycle;Signal;HPM_P1;HPM_P2
2022/01/07 00:00:47;;;;;;;18.38;9.18;;;3.90;99.90;;;;;;5007602;28;20041;-71
2022/01/07 00:03:13;;;;;;;19.50;9.23;;;4.00;99.90;;;;;;5005802;28;20049;-71
2022/01/07 00:05:39;;;;;;;23.92;9.77;;;3.90;99.90;;;;;;5013463;28;20084;-71
2022/01/07 00:08:05;;;;;;;18.60;8.63;;;3.90;99.90;;;;;;5015979;28;20042;-70
2022/01/07 00:10:31;;;;;;;20.95;9.27;;;3.90;99.90;;;;;;5006825;28;20050;-71
2022/01/07 00:12:56;;;;;;;18.38;8.82;;;3.90;99.90;;;;;;5017209;28;20539;-71
2022/01/07 00:15:22;;;;;;;21.38;8.05;;;4.00;99.90;;;;;;5009382;28;20547;-71
2022/01/07 00:17:48;;;;;;;17.42;8.52;;;4.00;99.90;;;;;;5012729;28;20045;-71
2022/01/07 00:20:15;;;;;;;17.02;8.20;;;3.90;99.90;;;;;;5025896;28;20068;-72
2022/01/07 00:22:42;;;;;;;19.40;8.43;;;4.00;99.90;;;;;;5009835;28;20049;-72
2022/01/07 00:25:10;;;;;;;15.73;7.68;;;4.00;99.90;;;;;;5004899;28;20478;-72
2022/01/07 00:27:36;;;;;;;19.42;7.60;;;4.00;99.90;;;;;;5007646;28;20744;-71
2022/01/07 00:30:04;;;;;;;21.38;7.97;;;4.00;99.90;;;;;;5008507;28;20053;-71
2022/01/07 00:32:30;;;;;;;20.20;8.82;;;4.00;99.90;;;;;;5003346;28;20053;-71
2022/01/07 00:34:55;;;;;;;17.40;7.88;;;4.00;99.90;;;;;;5011007;28;20044;-71
2022/01/07 00:37:21;;;;;;;18.77;8.35;;;4.00;99.90;;;;;;5007765;28;20045;-71
2022/01/07 00:39:48;;;;;;;18.50;8.10;;;4.00;99.90;;;;;;5005983;28;20072;-72
2022/01/07 00:42:14;;;;;;;14.88;7.57;;;4.00;99.90;;;;;;5021372;28;20532;-71
2022/01/07 00:44:39;;;;;;;17.10;8.13;;;4.00;99.90;;;;;;5005354;28;20077;-71
2022/01/07 00:47:05;;;;;;;18.88;8.80;;;4.00;99.90;;;;;;5006774;28;20132;-71
2022/01/07 00:49:32;;;;;;;24.70;9.18;;;4.00;99.90;;;;;;5007824;28;20073;-71
2022/01/07 00:51:59;;;;;;;19.02;8.27;;;4.00;99.90;;;;;;5004813;28;20046;-71
2022/01/07 00:54:25;;;;;;;18.67;7.97;;;4.00;99.90;;;;;;5006122;28;20527;-71
2022/01/07 00:56:51;;;;;;;14.73;7.82;;;4.00;99.90;;;;;;5006242;28;20050;-71
2022/01/07 00:59:16;;;;;;;17.20;7.85;;;4.00;99.90;;;;;;5010574;28;20041;-71
2022/01/07 01:01:42;;;;;;;20.10;8.43;;;4.00;99.90;;;;;;5012980;28;20034;-71
2022/01/07 01:04:08;;;;;;;18.35;8.00;;;4.00;99.90;;;;;;5005043;28;20501;-72
2022/01/07 01:06:34;;;;;;;18.67;7.93;;;4.00;99.90;;;;;;5006930;28;20048;-71
2022/01/07 01:08:59;;;;;;;19.95;8.40;;;4.00;99.90;;;;;;5006590;28;20120;-71
2022/01/07 01:11:25;;;;;;;19.77;7.88;;;4.00;99.90;;;;;;5002391;28;20128;-72
2022/01/07 01:13:51;;;;;;;15.63;7.80;;;4.00;99.90;;;;;;5004922;28;20038;-71
2022/01/07 01:16:16;;;;;;;18.30;7.90;;;4.00;99.90;;;;;;5009655;28;20049;-72
2022/01/07 01:18:42;;;;;;;17.92;8.75;;;3.90;99.90;;;;;;5006605;28;20076;-71
2022/01/07 01:21:08;;;;;;;13.85;7.63;;;3.90;99.90;;;;;;5007192;28;20053;-72
2022/01/07 01:23:33;;;;;;;17.30;8.27;;;3.90;99.90;;;;;;5004462;28;20041;-72
2022/01/07 01:25:59;;;;;;;16.25;8.32;;;3.90;99.90;;;;;;5005337;28;20053;-72
2022/01/07 01:28:25;;;;;;;17.88;7.93;;;3.90;99.90;;;;;;5006034;28;20115;-71
2022/01/07 01:30:50;;;;;;;16.90;7.95;;;3.90;99.90;;;;;;5012028;28;20042;-71
2022/01/07 01:33:18;;;;;;;17.63;8.55;;;3.90;99.90;;;;;;5011114;28;20397;-72
2022/01/07 01:35:44;;;;;;;16.48;8.05;;;3.80;99.90;;;;;;5011353;28;20046;-71
2022/01/07 01:38:09;;;;;;;17.98;7.80;;;3.80;99.90;;;;;;5008345;28;20064;-71
2022/01/07 01:40:35;;;;;;;19.73;9.48;;;3.80;99.90;;;;;;5009271;28;20128;-72
2022/01/07 01:43:01;;;;;;;17.48;8.30;;;3.80;99.90;;;;;;5008976;28;20077;-72
2022/01/07 01:45:27;;;;;;;19.42;8.98;;;3.80;99.90;;;;;;5012042;28;20464;-72
2022/01/07 01:47:53;;;;;;;15.98;8.43;;;3.70;99.90;;;;;;5030996;28;20042;-71
2022/01/07 01:50:20;;;;;;;17.63;8.68;;;3.70;99.90;;;;;;5029799;28;20049;-71
2022/01/07 01:52:55;;;;;;;20.95;8.57;;;3.70;99.90;;;;;;5020507;28;20049;-71
2022/01/07 01:55:22;;;;;;;19.30;9.10;;;3.70;99.90;;;;;;5003021;28;20054;-73
2022/01/07 01:57:50;;;;;;;16.65;8.68;;;3.70;99.90;;;;;;5009176;28;20045;-71
2022/01/07 02:00:16;;;;;;;18.95;9.43;;;3.60;99.90;;;;;;5009833;28;20049;-72
2022/01/07 02:02:42;;;;;;;17.67;9.02;;;3.60;99.90;;;;;;5031250;28;20045;-72
2022/01/07 02:05:09;;;;;;;17.25;8.73;;;3.60;99.90;;;;;;4995994;28;20037;-71
2022/01/07 02:07:37;;;;;;;19.08;10.00;;;3.60;99.90;;;;;;5010555;28;20441;-71
2022/01/07 02:10:05;;;;;;;20.13;10.65;;;3.60;99.90;;;;;;5011406;28;20046;-69
2022/01/07 02:12:31;;;;;;;19.13;10.65;;;3.50;99.90;;;;;;5019161;28;20057;-71
2022/01/07 02:14:57;;;;;;;22.10;10.45;;;3.50;99.90;;;;;;5010336;28;20088;-71
2022/01/07 02:17:24;;;;;;;19.63;10.55;;;3.50;99.90;;;;;;5011773;28;20111;-72
2022/01/07 02:19:50;;;;;;;;;;;3.50;99.90;;;;;;5006541;28;20050;-72
2022/01/07 02:22:19;;;;;;;17.20;9.95;;;3.50;99.90;;;;;;5009347;28;19929;-71
2022/01/07 02:24:48;;;;;;;17.50;10.77;;;3.40;99.90;;;;;;5009217;28;20049;-72
2022/01/07 02:27:15;;;;;;;22.30;13.02;;;3.50;99.90;;;;;;5009738;28;20416;-71
2022/01/07 02:29:44;;;;;;;21.13;12.23;;;3.40;99.90;;;;;;5009242;28;20057;-71
2022/01/07 02:32:09;;;;;;;20.95;12.35;;;3.40;99.90;;;;;;5007991;28;20416;-71
2022/01/07 02:34:35;;;;;;;20.83;12.23;;;3.40;99.90;;;;;;5009763;28;20057;-71
2022/01/07 02:37:01;;;;;;;22.13;13.00;;;3.40;99.90;;;;;;5023185;28;20036;-72
2022/01/07 02:39:26;;;;;;;21.50;12.82;;;3.40;99.90;;;;;;5006691;28;20527;-72
2022/01/07 02:41:52;;;;;;;24.98;13.68;;;3.40;99.90;;;;;;5008177;28;20034;-71
2022/01/07 02:44:17;;;;;;;24.58;13.93;;;3.40;99.90;;;;;;5006757;28;20076;-71
2022/01/07 02:46:45;;;;;;;22.60;14.25;;;3.40;99.90;;;;;;5008312;28;20050;-72
2022/01/07 02:49:12;;;;;;;19.55;13.98;;;3.40;99.90;;;;;;5013011;28;20049;-71
2022/01/07 02:51:38;;;;;;;21.10;14.65;;;3.40;99.90;;;;;;5007409;28;20510;-71
2022/01/07 02:54:05;;;;;;;24.73;14.45;;;3.40;99.90;;;;;;5007688;28;20049;-72
2022/01/07 02:56:31;;;;;;;23.27;14.88;;;3.40;99.90;;;;;;5013878;28;20026;-71
2022/01/07 02:58:57;;;;;;;25.40;15.90;;;3.40;99.90;;;;;;5012137;28;20072;-72
2022/01/07 03:01:22;;;;;;;24.33;15.18;;;3.30;99.90;;;;;;5014166;28;20057;-72
2022/01/07 03:03:48;;;;;;;21.80;14.60;;;3.30;99.90;;;;;;5012995;28;20587;-71
2022/01/07 03:06:14;;;;;;;26.33;15.60;;;3.40;99.90;;;;;;5011818;28;20387;-71
2022/01/07 03:08:39;;;;;;;23.40;15.40;;;3.30;99.90;;;;;;5006173;28;20276;-71
2022/01/07 03:11:06;;;;;;;21.75;15.20;;;3.30;99.90;;;;;;5009462;28;20045;-71
2022/01/07 03:13:31;;;;;;;23.15;15.15;;;3.30;99.90;;;;;;5007923;28;20077;-71
2022/01/07 03:15:57;;;;;;;24.67;15.15;;;3.30;99.90;;;;;;5010011;28;20065;-71
2022/01/07 03:18:23;;;;;;;24.83;15.38;;;3.30;99.90;;;;;;5018252;28;20396;-72
2022/01/07 03:20:48;;;;;;;24.70;15.68;;;3.30;99.90;;;;;;5005830;28;20068;-73
2022/01/07 03:23:14;;;;;;;23.70;15.73;;;3.30;99.90;;;;;;5007236;28;20050;-71
2022/01/07 03:25:41;;;;;;;21.10;15.80;;;3.30;99.90;;;;;;5004213;28;20054;-71
2022/01/07 03:28:10;;;;;;;22.58;15.38;;;3.30;99.90;;;;;;5008241;28;20050;-71
2022/01/07 03:30:36;;;;;;;20.85;15.40;;;3.30;99.90;;;;;;5009769;28;20038;-71
2022/01/07 03:33:01;;;;;;;20.02;14.70;;;3.30;99.90;;;;;;5008822;28;20037;-72
2022/01/07 03:35:27;;;;;;;22.95;14.52;;;3.20;99.90;;;;;;5007611;28;20454;-71
2022/01/07 03:37:53;;;;;;;18.70;14.55;;;3.20;99.90;;;;;;5007332;28;20133;-71
2022/01/07 03:40:20;;;;;;;20.52;14.75;;;3.20;99.90;;;;;;5007490;28;20080;-72
2022/01/07 03:42:46;;;;;;;22.35;15.13;;;3.20;99.90;;;;;;5009092;28;20037;-71
2022/01/07 03:45:13;;;;;;;19.38;14.73;;;3.20;99.90;;;;;;5008154;28;20045;-71
2022/01/07 03:47:40;;;;;;;21.00;14.10;;;3.20;99.90;;;;;;5008354;28;20123;-71
2022/01/07 03:50:07;;;;;;;19.00;14.85;;;3.20;99.90;;;;;;5008531;28;20404;-72
2022/01/07 03:52:34;;;;;;;17.88;15.02;;;3.20;99.90;;;;;;5004730;28;20382;-71
2022/01/07 03:54:59;;;;;;;19.07;14.37;;;3.20;99.90;;;;;;5002637;28;20054;-71
2022/01/07 03:57:25;;;;;;;20.05;15.05;;;3.20;99.90;;;;;;5011207;28;20288;-71
2022/01/07 03:59:51;;;;;;;19.58;14.43;;;3.20;99.90;;;;;;5018433;28;20061;-71
2022/01/07 04:02:17;;;;;;;19.95;14.30;;;3.20;99.90;;;;;;5016035;28;20038;-70
2022/01/07 04:04:43;;;;;;;17.67;14.47;;;3.20;99.90;;;;;;5005679;28;20401;-72
2022/01/07 04:07:09;;;;;;;20.50;14.85;;;3.20;99.90;;;;;;5005796;28;20046;-71
2022/01/07 04:09:35;;;;;;;17.33;14.07;;;3.20;99.90;;;;;;5006015;28;20405;-71
2022/01/07 04:12:00;;;;;;;21.92;15.05;;;3.30;99.90;;;;;;5010012;28;20065;-71
2022/01/07 04:14:26;;;;;;;19.30;14.85;;;3.30;99.90;;;;;;5007433;28;20371;-71
2022/01/07 04:16:53;;;;;;;20.40;14.50;;;3.40;99.90;;;;;;5010829;28;20137;-71
2022/01/07 04:19:18;;;;;;;17.85;13.77;;;3.30;99.90;;;;;;5008799;28;20050;-72
2022/01/07 04:21:46;;;;;;;20.58;14.02;;;3.30;99.90;;;;;;5006450;28;20428;-72
2022/01/07 04:24:12;;;;;;;21.52;14.57;;;3.30;99.90;;;;;;5005215;28;20104;-72
2022/01/07 04:26:37;;;;;;;21.35;14.18;;;3.40;99.90;;;;;;5007076;28;20058;-71
2022/01/07 04:29:03;;;;;;;20.20;14.48;;;3.40;99.90;;;;;;5013120;28;21003;-71
2022/01/07 04:31:29;;;;;;;19.00;14.48;;;3.40;99.90;;;;;;5007053;28;20121;-71
2022/01/07 04:33:54;;;;;;;17.60;14.00;;;3.40;99.90;;;;;;5009864;28;20037;-71
2022/01/07 04:36:20;;;;;;;17.25;13.65;;;3.40;99.90;;;;;;5014716;28;20661;-71
2022/01/07 04:38:46;;;;;;;18.63;13.00;;;3.40;99.90;;;;;;5017705;28;20453;-71
2022/01/07 04:41:12;;;;;;;21.33;14.00;;;3.40;99.90;;;;;;5010731;28;20044;-72
2022/01/07 04:43:38;;;;;;;18.80;14.15;;;3.40;99.90;;;;;;5007065;28;20400;-71
2022/01/07 04:46:04;;;;;;;20.00;14.95;;;3.40;99.90;;;;;;5007250;28;20409;-71
2022/01/07 04:48:30;;;;;;;17.02;13.70;;;3.50;99.90;;;;;;5008925;28;20117;-72
2022/01/07 04:50:56;;;;;;;19.52;13.75;;;3.40;99.90;;;;;;5008772;28;20045;-71
2022/01/07 04:53:21;;;;;;;18.50;14.05;;;3.40;99.90;;;;;;5020684;28;20116;-71
2022/01/07 04:55:47;;;;;;;16.35;13.60;;;3.40;99.90;;;;;;5008821;28;20481;-71
2022/01/07 04:58:14;;;;;;;18.80;13.82;;;3.50;99.90;;;;;;5007921;28;20049;-71
2022/01/07 05:00:42;;;;;;;18.67;14.00;;;3.40;99.90;;;;;;5005523;28;20054;-71
2022/01/07 05:03:08;;;;;;;18.80;13.32;;;3.40;99.90;;;;;;5007388;28;20045;-72
2022/01/07 05:05:34;;;;;;;19.10;13.50;;;3.40;99.90;;;;;;5006086;28;20052;-72
2022/01/07 05:08:01;;;;;;;25.02;14.50;;;3.40;99.90;;;;;;5016355;28;20033;-71
2022/01/07 05:10:27;;;;;;;20.17;13.80;;;3.40;99.90;;;;;;5011639;28;20081;-71
2022/01/07 05:12:53;;;;;;;17.83;13.35;;;3.40;99.90;;;;;;5009663;28;20131;-71
2022/01/07 05:15:19;;;;;;;20.13;13.80;;;3.40;99.90;;;;;;5010439;28;20053;-72
2022/01/07 05:17:46;;;;;;;17.55;13.32;;;3.40;99.90;;;;;;5007622;28;20062;-72
2022/01/07 05:20:13;;;;;;;18.17;12.10;;;3.40;99.90;;;;;;5008980;28;20049;-72
2022/01/07 05:22:39;;;;;;;20.15;13.98;;;3.40;99.90;;;;;;5009348;28;20058;-72
2022/01/07 05:25:07;;;;;;;17.55;13.18;;;3.40;99.90;;;;;;5012083;28;20123;-73
2022/01/07 05:27:33;;;;;;;18.45;12.60;;;3.40;99.90;;;;;;5025862;28;20042;-72
2022/01/07 05:29:58;;;;;;;15.20;12.40;;;3.40;99.90;;;;;;5015813;28;20054;-72
2022/01/07 05:32:24;;;;;;;18.40;12.70;;;3.40;99.90;;;;;;5016125;28;20073;-72
2022/01/07 05:34:50;;;;;;;16.67;12.25;;;3.40;99.90;;;;;;5007772;28;20142;-72
2022/01/07 05:37:15;;;;;;;16.38;12.55;;;3.40;99.90;;;;;;5015720;28;20404;-72
2022/01/07 05:39:41;;;;;;;16.50;12.20;;;3.40;99.90;;;;;;5013185;28;20092;-72
2022/01/07 05:42:07;;;;;;;15.40;12.35;;;3.40;99.90;;;;;;5017541;28;20555;-72
2022/01/07 05:44:32;;;;;;;15.75;13.07;;;3.40;99.90;;;;;;5007996;28;20046;-72
2022/01/07 05:46:58;;;;;;;17.40;12.73;;;3.40;99.90;;;;;;5010049;28;20072;-71
2022/01/07 05:49:24;;;;;;;15.75;12.15;;;3.40;99.90;;;;;;5010941;28;20149;-72
2022/01/07 05:51:49;;;;;;;16.35;12.00;;;3.50;99.90;;;;;;5009125;28;20050;-71
2022/01/07 05:54:15;;;;;;;15.73;12.48;;;3.40;99.90;;;;;;5009058;28;20441;-72
2022/01/07 05:56:41;;;;;;;15.88;12.80;;;3.50;99.90;;;;;;5005404;28;20042;-71
2022/01/07 05:59:07;;;;;;;14.18;12.07;;;3.50;99.90;;;;;;5008082;28;20046;-72
2022/01/07 06:01:32;;;;;;;16.42;12.27;;;3.50;99.90;;;;;;5010054;28;20128;-72
2022/01/07 06:03:58;;;;;;;15.00;12.82;;;3.40;99.90;;;;;;5008097;28;20575;-71
2022/01/07 06:06:24;;;;;;;13.70;11.88;;;3.40;99.90;;;;;;4981681;28;20045;-72
2022/01/07 06:08:49;;;;;;;13.70;12.10;;;3.40;99.90;;;;;;5011412;28;20045;-72
2022/01/07 06:11:15;;;;;;;14.15;11.55;;;3.40;99.90;;;;;;5014535;28;20133;-72
2022/01/07 06:13:41;;;;;;;16.55;11.40;;;3.40;99.90;;;;;;5009892;28;20131;-72
2022/01/07 06:16:07;;;;;;;13.32;11.68;;;3.40;99.90;;;;;;5010369;28;20058;-72
2022/01/07 06:18:33;;;;;;;16.35;11.63;;;3.50;99.90;;;;;;5008746;28;20137;-72
2022/01/07 06:20:58;;;;;;;15.25;10.93;;;3.50;99.90;;;;;;5019291;28;20568;-72
2022/01/07 06:23:24;;;;;;;15.90;11.35;;;3.50;99.90;;;;;;5028361;28;20053;-72
2022/01/07 06:25:50;;;;;;;14.68;11.20;;;3.50;99.90;;;;;;5007644;28;20053;-72
2022/01/07 06:28:19;;;;;;;15.05;11.45;;;3.50;99.90;;;;;;5009405;28;20049;-72
2022/01/07 06:30:45;;;;;;;14.40;11.48;;;3.50;99.90;;;;;;5013000;28;20100;-72
2022/01/07 06:33:11;;;;;;;14.13;10.88;;;3.50;99.90;;;;;;5010070;28;20050;-71
2022/01/07 06:35:36;;;;;;;15.95;11.73;;;3.50;99.90;;;;;;5009504;28;20096;-72
2022/01/07 06:38:03;;;;;;;14.95;11.07;;;3.50;99.90;;;;;;5008948;28;20050;-72
2022/01/07 06:40:29;;;;;;;13.70;10.60;;;3.50;99.90;;;;;;5007001;28;20049;-71
2022/01/07 06:42:55;;;;;;;13.10;11.63;;;3.50;99.90;;;;;;5012779;28;20056;-72
2022/01/07 06:45:20;;;;;;;12.88;10.77;;;3.60;99.90;;;;;;5009146;28;20061;-72
2022/01/07 06:47:46;;;;;;;14.10;10.80;;;3.60;99.90;;;;;;5009149;28;20064;-72
2022/01/07 06:50:12;;;;;;;14.57;10.75;;;3.60;99.90;;;;;;5011402;28;20086;-72
2022/01/07 06:52:38;;;;;;;12.95;10.85;;;3.50;99.90;;;;;;5009652;28;20045;-71
2022/01/07 06:55:04;;;;;;;11.55;10.10;;;3.60;99.90;;;;;;5009494;28;20412;-72
2022/01/07 06:57:30;;;;;;;15.38;11.73;;;3.60;99.90;;;;;;5007762;28;20081;-72
2022/01/07 06:59:56;;;;;;;14.10;10.65;;;3.60;99.90;;;;;;5007316;28;20464;-72
2022/01/07 07:02:21;;;;;;;14.13;10.68;;;3.60;99.90;;;;;;5007918;28;20661;-72
2022/01/07 07:04:47;;;;;;;12.30;10.35;;;3.60;99.90;;;;;;5004926;28;20141;-72
2022/01/07 07:07:14;;;;;;;13.48;11.25;;;3.60;99.90;;;;;;5008673;28;20121;-71
2022/01/07 07:09:39;;;;;;;14.57;11.75;;;3.60;99.90;;;;;;5009838;28;20034;-72
2022/01/07 07:12:05;;;;;;;13.18;10.73;;;3.60;99.90;;;;;;5007539;28;20879;-72
2022/01/07 07:14:31;;;;;;;12.45;11.05;;;3.60;99.90;;;;;;5011127;28;20048;-71
2022/01/07 07:16:56;;;;;;;14.10;11.43;;;3.60;99.90;;;;;;4999559;28;20058;-71
2022/01/07 07:19:22;;;;;;;13.75;11.75;;;3.60;99.90;;;;;;5008736;28;20497;-72
2022/01/07 07:21:48;;;;;;;15.73;12.02;;;3.70;99.90;;;;;;5005521;28;20552;-72
2022/01/07 07:24:14;;;;;;;14.77;10.98;;;3.70;99.90;;;;;;5009220;28;20049;-72
2022/01/07 07:26:40;;;;;;;14.77;12.13;;;3.60;99.90;;;;;;5006583;28;20053;-72
2022/01/07 07:29:06;;;;;;;12.82;11.52;;;3.60;99.90;;;;;;5007578;28;20478;-71
2022/01/07 07:31:32;;;;;;;15.48;12.88;;;3.60;99.90;;;;;;5005887;28;20120;-72
2022/01/07 07:34:44;;;;;;;15.83;11.70;;;3.60;99.90;;;;;;5021001;28;20072;-71
2022/01/07 07:36:49;;;;;;;14.90;13.38;;;3.60;99.90;;;;;;5016408;28;20053;-71
2022/01/07 07:39:16;;;;;;;14.68;13.25;;;3.60;99.90;;;;;;5008523;28;20057;-71
2022/01/07 07:41:42;;;;;;;17.05;15.35;;;3.60;99.90;;;;;;5006403;28;20046;-72
2022/01/07 07:44:08;;;;;;;17.25;14.07;;;3.60;99.90;;;;;;5007614;28;20050;-72
2022/01/07 07:46:36;;;;;;;17.60;14.68;;;3.60;99.90;;;;;;5009137;28;20137;-72
2022/01/07 07:49:06;;;;;;;18.08;16.05;;;3.60;99.90;;;;;;5006736;28;20103;-71
2022/01/07 07:51:32;;;;;;;19.90;16.40;;;3.60;99.90;;;;;;5007296;28;20120;-71
2022/01/07 07:53:58;;;;;;;20.88;17.33;;;3.60;99.90;;;;;;5004107;28;20042;-71
2022/01/07 07:56:26;;;;;;;20.48;16.65;;;3.70;99.90;;;;;;5006984;28;20504;-72
2022/01/07 07:58:52;;;;;;;21.08;16.83;;;3.70;99.90;;;;;;5006351;28;20128;-71
2022/01/07 08:01:18;;;;;;;18.25;16.27;;;3.70;99.90;;;;;;5010558;28;20050;-74
2022/01/07 08:03:45;;;;;;;18.77;15.52;;;3.70;99.90;;;;;;5008454;28;20045;-71
2022/01/07 08:06:11;;;;;;;21.33;16.83;;;3.70;99.90;;;;;;5008826;28;20061;-70
2022/01/07 08:08:37;;;;;;;19.10;16.73;;;3.70;99.90;;;;;;5005829;28;20053;-70
2022/01/07 08:11:06;;;;;;;18.88;16.85;;;3.70;99.90;;;;;;5007976;28;20061;-71
2022/01/07 08:15:58;;;;;;;20.30;16.85;;;3.70;99.90;;;;;;5009796;28;20049;-70
2022/01/07 08:16:19;;;;;;;22.42;18.75;;;3.70;99.90;;;;;;5007930;28;20042;-70
2022/01/07 08:18:51;;;;;;;26.10;19.58;;;3.80;99.90;;;;;;5006304;28;20050;-70
2022/01/07 08:21:17;;;;;;;23.27;18.40;;;3.80;99.90;;;;;;5009123;28;20441;-69
2022/01/07 08:23:44;;;;;;;28.10;19.73;;;3.80;99.90;;;;;;5007578;28;20100;-69
2022/01/07 08:26:12;;;;;;;26.17;21.20;;;3.90;99.90;;;;;;5008146;28;20041;-70
2022/01/07 08:28:48;;;;;;;36.90;30.48;;;3.80;99.90;;;;;;5005972;28;20130;-70
2022/01/07 08:36:37;;;;;;;59.03;47.92;;;3.90;99.90;;;;;;5008280;28;20092;-68
2022/01/07 08:39:08;;;;;;;88.25;71.93;;;3.90;99.90;;;;;;5008510;28;20076;-70
2022/01/07 08:41:34;;;;;;;93.82;75.13;;;4.00;99.90;;;;;;5006994;28;20057;-71
2022/01/07 08:44:01;;;;;;;54.00;46.40;;;4.00;99.90;;;;;;5013589;28;20115;-71
2022/01/07 08:46:26;;;;;;;52.00;46.63;;;4.00;99.90;;;;;;5009049;28;20049;-71
2022/01/07 08:48:52;;;;;;;39.95;35.95;;;4.00;99.90;;;;;;5005697;28;20048;-70
2022/01/07 08:51:18;;;;;;;37.28;32.92;;;4.10;99.90;;;;;;5006591;28;20061;-70
2022/01/07 08:53:45;;;;;;;40.50;34.55;;;4.10;99.90;;;;;;5005522;28;20045;-71
2022/01/07 08:56:10;;;;;;;31.42;27.80;;;4.10;99.90;;;;;;5006116;28;20509;-71
2022/01/07 08:58:36;;;;;;;34.22;27.40;;;4.20;99.90;;;;;;5006825;28;20068;-71
2022/01/07 09:01:03;;;;;;;31.00;26.45;;;4.20;99.90;;;;;;5008167;28;20037;-71
2022/01/07 09:03:29;;;;;;;31.20;26.77;;;4.20;99.90;;;;;;5007545;28;20050;-71
2022/01/07 09:05:54;;;;;;;31.90;24.83;;;4.20;99.90;;;;;;5007273;28;20708;-70
2022/01/07 09:08:21;;;;;;;29.58;24.52;;;4.30;99.90;;;;;;5005887;28;20042;-70
2022/01/07 09:10:47;;;;;;;29.52;24.17;;;4.30;99.90;;;;;;5007559;28;20050;-69
2022/01/07 09:13:13;;;;;;;31.15;25.30;;;4.30;99.90;;;;;;5008960;28;20382;-71
2022/01/07 09:15:39;;;;;;;35.50;25.85;;;4.30;99.90;;;;;;5006033;28;20038;-70
2022/01/07 09:18:11;;;;;;;32.03;26.20;;;4.40;99.90;;;;;;5006863;28;20089;-70
2022/01/07 09:20:43;;;;;;;35.28;25.67;;;4.40;99.90;;;;;;5008255;28;20038;-70
2022/01/07 09:23:09;;;;;;;30.50;25.65;;;4.40;99.90;;;;;;5008175;28;20042;-71
2022/01/07 09:25:35;;;;;;;32.73;26.03;;;4.40;99.90;;;;;;5007206;28;20038;-70
2022/01/07 09:28:02;;;;;;;29.55;25.65;;;4.50;99.90;;;;;;5008734;28;20049;-70
2022/01/07 09:30:27;;;;;;;33.30;26.88;;;4.50;99.90;;;;;;5007576;28;20478;-70
2022/01/07 09:32:53;;;;;;;32.75;28.00;;;4.50;99.90;;;;;;5007294;28;20064;-70
2022/01/07 09:35:19;;;;;;;35.92;26.80;;;4.60;99.90;;;;;;5007299;28;20041;-70
2022/01/07 09:37:45;;;;;;;31.02;26.80;;;4.60;99.90;;;;;;5008097;28;20509;-69
2022/01/07 09:40:12;;;;;;;35.90;27.98;;;4.60;99.90;;;;;;5007686;28;20085;-69
2022/01/07 09:42:39;;;;;;;36.37;27.70;;;4.70;99.90;;;;;;5006499;28;20048;-73
2022/01/07 09:45:05;;;;;;;31.83;27.92;;;4.70;99.90;;;;;;5006683;28;20313;-72
2022/01/07 09:47:31;;;;;;;35.33;28.35;;;4.80;99.90;;;;;;5005835;28;20065;-70
2022/01/07 09:49:57;;;;;;;32.17;26.63;;;4.80;99.90;;;;;;5003369;28;20046;-70
2022/01/07 09:52:25;;;;;;;30.73;25.98;;;4.80;99.90;;;;;;4990488;28;20046;-73
2022/01/07 09:54:51;;;;;;;30.42;26.80;;;4.80;99.90;;;;;;5000472;28;20115;-71
2022/01/07 09:57:16;;;;;;;32.00;26.45;;;4.90;99.90;;;;;;5011046;28;20457;-70
2022/01/07 09:59:51;;;;;;;37.28;25.85;;;4.90;99.90;;;;;;5007610;28;20041;-74
2022/01/07 10:02:17;;;;;;;30.35;25.52;;;5.00;99.90;;;;;;5009608;28;20462;-70
2022/01/07 10:04:43;;;;;;;34.10;25.75;;;5.00;99.90;;;;;;5005285;28;20052;-71
2022/01/07 10:07:20;;;;;;;35.22;24.85;;;5.00;99.90;;;;;;5007626;28;20038;-69
2022/01/07 10:10:18;;;;;;;33.13;25.27;;;5.10;99.90;;;;;;5009634;28;20041;-69
2022/01/07 10:12:52;;;;;;;33.25;24.10;;;5.10;99.90;;;;;;4998971;28;20112;-71
2022/01/07 10:15:29;;;;;;;33.28;23.77;;;5.10;99.90;;;;;;5009941;28;20053;-72
2022/01/07 10:18:12;;;;;;;31.10;24.75;;;5.20;99.90;;;;;;5010782;28;20066;-76
2022/01/07 10:20:40;;;;;;;31.48;24.30;;;5.20;99.90;;;;;;5009552;28;20084;-74
2022/01/07 10:23:09;;;;;;;33.22;25.00;;;5.30;99.90;;;;;;5015554;28;20042;-72
2022/01/07 10:25:37;;;;;;;33.65;22.98;;;5.30;99.90;;;;;;5009538;28;20494;-75
2022/01/07 10:28:06;;;;;;;29.52;22.80;;;5.30;99.90;;;;;;5010301;28;20044;-72
2022/01/07 10:30:41;;;;;;;29.95;22.83;;;5.30;99.90;;;;;;5010537;28;20527;-72
2022/01/07 10:33:24;;;;;;;27.60;22.27;;;5.30;99.90;;;;;;5008637;28;20042;-73
2022/01/07 10:35:56;;;;;;;61.05;41.88;;;5.30;99.90;;;;;;5008099;28;20058;-75
2022/01/07 10:38:24;;;;;;;96.80;66.43;;;5.30;99.90;;;;;;5009107;28;20050;-72
2022/01/07 10:40:52;;;;;;;46.17;40.13;;;5.30;99.90;;;;;;5009342;28;20204;-71
2022/01/07 10:43:32;;;;;;;35.28;30.15;;;5.30;99.90;;;;;;5012774;28;20060;-70
2022/01/07 10:45:59;;;;;;;35.83;28.80;;;5.30;99.90;;;;;;5007160;28;20053;-71
2022/01/07 10:48:50;;;;;;;34.05;28.80;;;5.30;99.90;;;;;;5006543;28;20564;-72
2022/01/07 10:51:24;;;;;;;33.40;27.13;;;5.30;99.90;;;;;;5007901;28;20053;-71
2022/01/07 10:54:16;;;;;;;37.53;31.20;;;5.30;99.90;;;;;;5008006;28;20061;-71
2022/01/07 10:56:47;;;;;;;29.58;24.67;;;5.30;99.90;;;;;;5007311;28;20085;-71
2022/01/07 10:59:18;;;;;;;30.48;25.52;;;5.20;99.90;;;;;;5008272;28;20057;-72
2022/01/07 11:01:45;;;;;;;29.80;23.45;;;5.20;99.90;;;;;;5007718;28;20045;-74
2022/01/07 11:04:26;;;;;;;32.38;23.67;;;5.20;99.90;;;;;;5007452;28;20162;-73
2022/01/07 11:06:56;;;;;;;33.58;24.67;;;5.20;99.90;;;;;;5006902;28;20489;-71
2022/01/07 11:09:22;;;;;;;30.58;24.60;;;5.20;99.90;;;;;;5010211;28;20046;-72
2022/01/07 11:11:50;;;;;;;33.90;25.80;;;5.10;99.90;;;;;;5028877;28;20110;-73
2022/01/07 11:14:21;;;;;;;30.90;25.10;;;5.10;99.90;;;;;;5015331;28;20108;-71
2022/01/07 11:16:48;;;;;;;39.00;33.22;;;5.10;99.90;;;;;;5011006;28;20145;-73
2022/01/07 11:19:23;;;;;;;83.87;70.97;;;5.10;99.90;;;;;;5008526;28;20473;-73
2022/01/07 11:21:51;;;;;;;131.95;106.32;;;5.10;99.90;;;;;;5008358;28;20069;-72
2022/01/07 11:24:37;;;;;;;65.88;52.50;;;5.20;99.90;;;;;;5009096;28;20544;-73
2022/01/07 11:27:11;;;;;;;71.05;53.38;;;5.20;99.90;;;;;;5008093;28;20103;-73
2022/01/07 11:29:40;;;;;;;51.17;39.05;;;5.20;99.90;;;;;;5013781;28;20370;-73
2022/01/07 11:32:24;;;;;;;42.08;31.33;;;5.20;99.90;;;;;;5006259;28;20108;-72
2022/01/07 11:34:50;;;;;;;37.92;31.30;;;5.30;99.90;;;;;;5006979;28;20423;-75
2022/01/07 11:37:37;;;;;;;40.38;32.45;;;5.30;99.90;;;;;;5011452;28;20219;-73
2022/01/07 11:40:04;;;;;;;35.50;28.48;;;5.50;99.90;;;;;;5007026;28;20045;-72
2022/01/07 11:42:41;;;;;;;31.33;27.60;;;5.50;99.90;;;;;;5008107;28;20053;-72
2022/01/07 11:45:29;;;;;;;29.35;24.33;;;5.60;99.90;;;;;;5007687;28;20042;-72
2022/01/07 11:48:17;;;;;;;39.72;31.52;;;5.60;99.90;;;;;;5006988;28;20111;-69
2022/01/07 11:51:00;;;;;;;109.45;61.05;;;5.70;99.90;;;;;;5005469;28;20050;-72
2022/01/07 11:53:49;;;;;;;56.20;45.33;;;5.70;99.90;;;;;;5021103;28;20852;-72
2022/01/07 11:56:23;;;;;;;37.65;27.63;;;5.70;99.90;;;;;;5009074;28;20050;-71
2022/01/07 11:58:52;;;;;;;43.00;36.15;;;5.70;99.90;;;;;;5004434;28;20050;-72
2022/01/07 12:01:36;;;;;;;32.40;28.13;;;5.60;99.90;;;;;;5006688;28;20054;-75
2022/01/07 12:04:29;;;;;;;29.48;22.38;;;5.60;99.90;;;;;;5007413;28;20081;-73
2022/01/07 12:06:57;;;;;;;19.90;13.50;;;5.60;99.90;;;;;;5007785;28;20504;-72
2022/01/07 12:09:34;;;;;;;14.63;8.90;;;5.60;99.90;;;;;;5006638;28;20378;-72
2022/01/07 12:12:01;;;;;;;11.98;7.05;;;5.50;99.90;;;;;;5007741;28;20044;-73
2022/01/07 12:14:32;;;;;;;10.52;7.07;;;5.40;99.90;;;;;;5004769;28;20046;-72
2022/01/07 12:16:59;;;;;;;8.00;2.60;;;5.20;99.90;;;;;;5005100;28;20129;-73
2022/01/07 12:19:37;;;;;;;8.13;3.78;;;5.10;99.90;;;;;;5007651;28;20516;-72
2022/01/07 12:22:07;;;;;;;7.47;4.70;;;4.90;99.90;;;;;;5007351;28;20081;-71
2022/01/07 12:24:33;;;;;;;9.20;2.83;;;4.80;99.90;;;;;;5007211;28;20139;-71
2022/01/07 12:27:02;;;;;;;6.65;2.00;;;4.80;99.90;;;;;;5007480;28;20053;-72
2022/01/07 12:29:32;;;;;;;7.55;2.50;;;4.70;99.90;;;;;;5007004;28;20405;-71
2022/01/07 12:31:58;;;;;;;9.70;2.60;;;4.60;99.90;;;;;;5007477;28;20042;-73
2022/01/07 12:34:29;;;;;;;9.68;2.70;;;4.60;99.90;;;;;;5007160;28;20045;-71
2022/01/07 12:37:05;;;;;;;8.95;3.20;;;4.50;99.90;;;;;;5009205;28;20080;-76
2022/01/07 12:39:37;;;;;;;10.93;2.58;;;4.50;99.90;;;;;;5004329;28;20053;-72
2022/01/07 12:42:05;;;;;;;6.88;2.60;;;4.50;99.90;;;;;;5006472;28;20045;-72
2022/01/07 12:44:52;;;;;;;7.20;2.67;;;4.50;99.90;;;;;;5003616;28;20057;-73
2022/01/07 12:47:20;;;;;;;12.27;5.50;;;4.50;99.90;;;;;;5007297;28;20133;-71
2022/01/07 12:49:51;;;;;;;9.65;3.38;;;4.50;99.90;;;;;;5002881;28;20050;-73